Pagina principale
METAR-TAF:

METAR-TAF

Aeroporti :

Annecy, Francia

latitudine: 45-55-45N, longitudine: 006-05-56E, altezza: 463 m

Osservazione

Il bollettino è stato emesso 31 minuti fa, alle 21:00 UTC
Vento 5 kt da nord/nord-est
Temperature 5°C
Umidità 75%
Pressione 1021 hPa
Visibilità 10 km o più
Nuvoloso ad un'altezza di 2600 ft

METAR: LFLP 172100Z AUTO 02005KT 9999 BKN026 05/01 Q1021

Ora: 22:31 (21:31 UTC)

Previsione

Il bollettino è stato emesso 7 ore e 31 minuti fa, alle 14:00 UTC
Previsione valida dal 17 alle 15 UTC al 18 alle 15 UTC
Vento 7 kt da nord/nord-est
Visibilità 10 km o più
Nubi sparse ad un'altezza di 2000 ft
Probabilità 30%
dal 18 alle 03 UTC al 18 alle 10 UTC
Nuvoloso ad un'altezza di 1400 ft

TAF: LFLP 171400Z 1715/1815 02007KT 9999 SCT020 PROB30 1803/1810 BKN014

Osservazioni e previsioni meteorologiche di più di 4000 aeroporti (messaggi METAR e TAF).

Le stazioni disponibili sono rappresentate dai dischi gialli e rossi sulla carta.

Puntare il mouse per vedere il nome della stazione.

Clicca sopra per visualizzare le osservazioni e previsioni meteorologiche.

Per cambiare la mappa : fare clic sui pulsanti verdi con una croce nera per ingrandire, il pulsante verde con un trattino per diminuire, o sulla freccia verde per le mappe adiacenti.


METAR-TAF: